Time;durP1;ratioP1;P1;durP2;ratioP2;P2;SDS_P1;SDS_P2;PMS_P1;PMS_P2;Temp;Humidity;BMP_temperature;BMP_pressure;BME280_temperature;BME280_humidity;BME280_pressure;Samples;Min_cycle;Max_cycle;Signal;HPM_P1;HPM_P2
2023/09/16 00:00:06;;;;;;;17.60;9.05;;;14.30;99.90;;;;;;5050883;28;20068;-81
2023/09/16 00:02:52;;;;;;;12.40;8.20;;;14.40;99.90;;;;;;5050800;28;20049;-80
2023/09/16 00:05:38;;;;;;;14.88;8.88;;;14.40;99.90;;;;;;5019601;28;20480;-81
2023/09/16 00:08:24;;;;;;;14.82;9.77;;;14.50;99.90;;;;;;5050232;28;20045;-79
2023/09/16 00:11:10;;;;;;;13.45;9.95;;;14.50;99.90;;;;;;5036823;28;20056;-76
2023/09/16 00:13:57;;;;;;;23.02;9.77;;;14.50;99.90;;;;;;5050508;28;20386;-75
2023/09/16 00:16:43;;;;;;;15.30;10.38;;;14.50;99.90;;;;;;5050430;28;20053;-75
2023/09/16 00:19:29;;;;;;;13.60;9.93;;;14.50;99.90;;;;;;5049871;28;20065;-76
2023/09/16 00:22:15;;;;;;;17.65;10.88;;;14.50;99.90;;;;;;5032304;28;20110;-76
2023/09/16 00:25:01;;;;;;;16.75;10.50;;;14.40;99.90;;;;;;5050284;28;20068;-75
2023/09/16 00:27:47;;;;;;;19.00;10.32;;;14.40;99.90;;;;;;5050236;28;20102;-76
2023/09/16 00:30:35;;;;;;;16.67;11.43;;;14.40;99.90;;;;;;5050066;28;20045;-75
2023/09/16 00:33:21;;;;;;;15.45;10.40;;;14.40;99.90;;;;;;5050873;28;20041;-78
2023/09/16 00:36:08;;;;;;;14.52;10.95;;;14.40;99.90;;;;;;5048876;28;20037;-78
2023/09/16 00:38:54;;;;;;;16.75;11.85;;;14.40;99.90;;;;;;5050201;28;20144;-77
2023/09/16 00:41:40;;;;;;;17.00;10.75;;;14.30;99.90;;;;;;5049881;28;20500;-77
2023/09/16 00:44:26;;;;;;;20.38;14.35;;;14.30;99.90;;;;;;5032919;28;20056;-76
2023/09/16 00:47:13;;;;;;;17.80;13.27;;;14.30;99.90;;;;;;5049239;28;20107;-76
2023/09/16 00:50:00;;;;;;;34.15;13.57;;;14.20;99.90;;;;;;5031625;28;20056;-78
2023/09/16 00:52:55;;;;;;;18.83;13.48;;;14.20;99.90;;;;;;5049663;28;20053;-77
2023/09/16 00:55:45;;;;;;;16.98;12.82;;;14.20;99.90;;;;;;5049695;28;20496;-80
2023/09/16 00:58:32;;;;;;;19.13;13.00;;;14.20;99.90;;;;;;5050867;28;20057;-85
2023/09/16 01:01:19;;;;;;;19.90;12.25;;;14.10;99.90;;;;;;5050443;28;20057;-85
2023/09/16 01:04:07;;;;;;;18.30;13.23;;;14.10;99.90;;;;;;5032126;28;20059;-85
2023/09/16 01:06:53;;;;;;;15.70;11.80;;;14.10;99.90;;;;;;5051678;28;20505;-83
2023/09/16 01:09:40;;;;;;;18.63;12.45;;;14.10;99.90;;;;;;5036383;28;20118;-84
2023/09/16 01:12:26;;;;;;;16.48;11.55;;;14.10;99.90;;;;;;5055216;28;20049;-78
2023/09/16 01:15:14;;;;;;;20.85;14.38;;;14.00;99.90;;;;;;5054029;28;20045;-81
2023/09/16 01:18:23;;;;;;;21.85;13.88;;;14.00;99.90;;;;;;5022319;28;20128;-84
2023/09/16 01:21:10;;;;;;;19.65;13.77;;;14.00;99.90;;;;;;5035677;28;20057;-84
2023/09/16 01:24:19;;;;;;;22.65;13.98;;;14.00;99.90;;;;;;5053636;28;20056;-86
2023/09/16 01:27:07;;;;;;;16.42;11.95;;;14.00;99.90;;;;;;5035243;28;20518;-85
2023/09/16 01:29:53;;;;;;;18.52;13.52;;;14.00;99.90;;;;;;5053417;28;20045;-85
2023/09/16 01:32:50;;;;;;;17.17;12.35;;;14.00;99.90;;;;;;5052704;28;20052;-84
2023/09/16 01:35:39;;;;;;;19.77;13.55;;;14.00;99.90;;;;;;5035992;28;20056;-78
2023/09/16 01:38:27;;;;;;;17.40;13.25;;;14.00;99.90;;;;;;5053576;28;20071;-78
2023/09/16 01:41:16;;;;;;;18.83;13.63;;;13.90;99.90;;;;;;5054159;28;20053;-77
2023/09/16 01:44:03;;;;;;;17.08;12.90;;;13.90;99.90;;;;;;5053942;28;20106;-76
2023/09/16 01:46:49;;;;;;;19.30;12.85;;;13.90;99.90;;;;;;5021599;28;20056;-82
2023/09/16 01:49:36;;;;;;;17.15;13.07;;;13.90;99.90;;;;;;5053158;28;20053;-76
2023/09/16 01:52:22;;;;;;;18.10;13.45;;;13.90;99.90;;;;;;5053113;28;20056;-79
2023/09/16 01:55:09;;;;;;;20.20;13.93;;;13.90;99.90;;;;;;5054164;28;20053;-76
2023/09/16 01:57:55;;;;;;;16.00;11.25;;;13.80;99.90;;;;;;5052910;28;20084;-78
2023/09/16 02:00:42;;;;;;;20.67;15.00;;;13.80;99.90;;;;;;5052882;28;20107;-76
2023/09/16 02:03:28;;;;;;;17.63;13.23;;;13.80;99.90;;;;;;5034860;28;20059;-83
2023/09/16 02:06:14;;;;;;;18.15;13.23;;;13.80;99.90;;;;;;5053305;28;20045;-81
2023/09/16 02:09:00;;;;;;;19.05;13.32;;;13.70;99.90;;;;;;5035206;28;20048;-78
2023/09/16 02:11:46;;;;;;;22.02;14.30;;;13.70;99.90;;;;;;5052438;28;20053;-79
2023/09/16 02:14:38;;;;;;;24.60;14.63;;;13.70;99.90;;;;;;5037433;28;20107;-76
2023/09/16 02:17:25;;;;;;;20.08;14.40;;;13.70;99.90;;;;;;5053992;28;20052;-75
2023/09/16 02:20:11;;;;;;;19.60;13.68;;;13.60;99.90;;;;;;5054183;28;20049;-77
2023/09/16 02:22:57;;;;;;;16.02;12.18;;;13.60;99.90;;;;;;5053516;28;20451;-75
2023/09/16 02:25:43;;;;;;;16.58;11.90;;;13.60;99.90;;;;;;5054895;28;20455;-77
2023/09/16 02:28:29;;;;;;;20.17;13.93;;;13.50;99.90;;;;;;5053222;28;20144;-80
2023/09/16 02:31:16;;;;;;;16.02;11.98;;;13.50;99.90;;;;;;5034276;28;20675;-82
2023/09/16 02:34:02;;;;;;;16.70;11.95;;;13.50;99.90;;;;;;5052427;28;20151;-82
2023/09/16 02:36:48;;;;;;;24.63;15.73;;;13.40;99.90;;;;;;5052566;28;20057;-82
2023/09/16 02:39:34;;;;;;;17.13;13.25;;;13.40;99.90;;;;;;5053036;28;20102;-82
2023/09/16 02:42:20;;;;;;;18.33;11.95;;;13.40;99.90;;;;;;5052562;28;20049;-85
2023/09/16 02:45:06;;;;;;;18.08;13.60;;;13.40;99.90;;;;;;5052036;28;20049;-79
2023/09/16 02:47:53;;;;;;;18.60;13.57;;;13.40;99.90;;;;;;5052610;28;20041;-85
2023/09/16 02:50:39;;;;;;;19.60;13.43;;;13.30;99.90;;;;;;5034188;28;20056;-82
2023/09/16 02:53:25;;;;;;;20.75;14.20;;;13.30;99.90;;;;;;5053642;28;20084;-83
2023/09/16 02:56:11;;;;;;;18.52;14.18;;;13.30;99.90;;;;;;5037290;28;20049;-78
2023/09/16 02:58:57;;;;;;;20.35;13.98;;;13.30;99.90;;;;;;5034455;28;20492;-84
2023/09/16 03:01:43;;;;;;;16.42;11.93;;;13.30;99.90;;;;;;5034567;28;20412;-78
2023/09/16 03:04:29;;;;;;;17.05;12.55;;;13.20;99.90;;;;;;5050563;28;20045;-84
2023/09/16 03:07:15;;;;;;;20.13;11.82;;;13.20;99.90;;;;;;5052527;28;20041;-81
2023/09/16 03:10:01;;;;;;;16.45;12.95;;;13.20;99.90;;;;;;5033949;28;20045;-75
2023/09/16 03:12:48;;;;;;;19.10;13.25;;;13.10;99.90;;;;;;5034231;28;20080;-80
2023/09/16 03:15:47;;;;;;;18.48;13.57;;;13.10;99.90;;;;;;5051224;28;20089;-80
2023/09/16 03:18:33;;;;;;;22.58;12.82;;;13.10;99.90;;;;;;5052186;28;20052;-79
2023/09/16 03:21:24;;;;;;;16.55;11.85;;;13.10;99.90;;;;;;5033672;28;20048;-82
2023/09/16 03:24:10;;;;;;;18.40;13.23;;;13.10;99.90;;;;;;5051802;28;20120;-78
2023/09/16 03:26:56;;;;;;;18.77;11.52;;;13.10;99.90;;;;;;5050413;28;20154;-79
2023/09/16 03:29:42;;;;;;;22.20;13.45;;;13.10;99.90;;;;;;5031702;28;20135;-76
2023/09/16 03:32:29;;;;;;;20.40;14.00;;;13.10;99.90;;;;;;5051570;28;20107;-78
2023/09/16 03:35:15;;;;;;;15.90;11.60;;;13.10;99.90;;;;;;5051487;28;20048;-76
2023/09/16 03:38:01;;;;;;;18.55;13.55;;;13.10;99.90;;;;;;5051374;28;20119;-82
2023/09/16 03:40:47;;;;;;;18.08;13.10;;;13.10;99.90;;;;;;5033516;28;20052;-76
2023/09/16 03:43:34;;;;;;;19.85;11.95;;;13.00;99.90;;;;;;5051779;28;20053;-78
2023/09/16 03:46:20;;;;;;;17.92;12.93;;;13.00;99.90;;;;;;5051729;28;20045;-80
2023/09/16 03:49:06;;;;;;;18.25;12.85;;;13.00;99.90;;;;;;5032146;28;20062;-80
2023/09/16 03:51:52;;;;;;;22.23;14.80;;;13.00;99.90;;;;;;5032665;28;20489;-79
2023/09/16 03:54:39;;;;;;;19.35;14.60;;;13.00;99.90;;;;;;5033050;28;20540;-77
2023/09/16 03:57:25;;;;;;;18.95;13.68;;;13.00;99.90;;;;;;5032804;28;20139;-80
2023/09/16 04:00:12;;;;;;;19.63;14.55;;;13.00;99.90;;;;;;5050731;28;20545;-79
2023/09/16 04:02:58;;;;;;;20.98;15.75;;;13.00;99.90;;;;;;5051325;28;20052;-82
2023/09/16 04:05:45;;;;;;;23.13;16.52;;;13.00;99.90;;;;;;5051056;28;20049;-80
2023/09/16 04:08:32;;;;;;;22.73;16.58;;;13.00;99.90;;;;;;5050595;28;20501;-79
2023/09/16 04:11:18;;;;;;;19.35;14.52;;;13.00;99.90;;;;;;5033529;28;20121;-79
2023/09/16 04:14:05;;;;;;;25.58;19.33;;;13.00;99.90;;;;;;5050964;28;20049;-79
2023/09/16 04:16:51;;;;;;;30.70;21.83;;;13.10;99.90;;;;;;5049595;28;20059;-81
2023/09/16 04:19:37;;;;;;;26.35;18.25;;;13.10;99.90;;;;;;5050587;28;20045;-83
2023/09/16 04:22:23;;;;;;;24.42;18.08;;;13.10;99.90;;;;;;5032531;28;20099;-82
2023/09/16 04:25:09;;;;;;;24.65;16.92;;;13.10;99.90;;;;;;5032541;28;20068;-84
2023/09/16 04:27:55;;;;;;;28.27;20.48;;;13.10;99.90;;;;;;5049654;28;20130;-75
2023/09/16 04:30:49;;;;;;;25.15;20.98;;;13.10;99.90;;;;;;5030690;28;20091;-75
2023/09/16 04:33:35;;;;;;;25.05;18.60;;;13.10;99.90;;;;;;5036524;28;20052;-75
2023/09/16 04:36:22;;;;;;;30.42;22.73;;;13.10;99.90;;;;;;5035418;28;20106;-74
2023/09/16 04:39:08;;;;;;;25.83;19.55;;;13.10;99.90;;;;;;5050177;28;20049;-75
2023/09/16 04:41:55;;;;;;;32.50;23.40;;;13.00;99.90;;;;;;5051731;28;20045;-75
2023/09/16 04:44:41;;;;;;;31.23;22.73;;;13.10;99.90;;;;;;5054275;28;20053;-76
2023/09/16 04:47:28;;;;;;;23.77;17.60;;;13.00;99.90;;;;;;5052801;28;20611;-74
2023/09/16 04:50:14;;;;;;;26.05;20.02;;;13.00;99.90;;;;;;5053077;28;20409;-76
2023/09/16 04:53:00;;;;;;;20.95;15.75;;;13.00;99.90;;;;;;5054026;28;20049;-77
2023/09/16 04:55:46;;;;;;;25.25;18.13;;;13.00;99.90;;;;;;5053106;28;20045;-76
2023/09/16 04:58:32;;;;;;;28.17;20.73;;;13.00;99.90;;;;;;5054029;28;20045;-74
2023/09/16 05:01:19;;;;;;;26.25;18.58;;;13.00;99.90;;;;;;5053828;28;20053;-76
2023/09/16 05:04:05;;;;;;;31.73;23.65;;;13.00;99.90;;;;;;5054007;28;20048;-78
2023/09/16 05:06:51;;;;;;;25.52;19.27;;;13.00;99.90;;;;;;5052984;28;20056;-77
2023/09/16 05:09:37;;;;;;;27.23;20.05;;;13.00;99.90;;;;;;5054067;28;20049;-77
2023/09/16 05:12:23;;;;;;;26.60;20.13;;;12.90;99.90;;;;;;5055229;28;20049;-81
2023/09/16 05:15:10;;;;;;;27.48;21.23;;;12.90;99.90;;;;;;5036070;28;20048;-75
2023/09/16 05:17:56;;;;;;;27.05;21.10;;;12.90;99.90;;;;;;5036719;28;20092;-75
2023/09/16 05:20:42;;;;;;;32.92;24.17;;;12.90;99.90;;;;;;5054838;28;20049;-76
2023/09/16 05:23:34;;;;;;;27.10;20.52;;;12.90;99.90;;;;;;5034311;28;20057;-80
2023/09/16 05:26:20;;;;;;;35.67;25.17;;;12.90;99.90;;;;;;5053903;28;20415;-81
2023/09/16 05:29:06;;;;;;;33.00;24.90;;;12.90;99.90;;;;;;5052223;28;20072;-77
2023/09/16 05:31:53;;;;;;;30.55;23.98;;;12.90;99.90;;;;;;5052486;28;20057;-76
2023/09/16 05:34:39;;;;;;;27.08;22.08;;;12.90;99.90;;;;;;5053290;28;20619;-76
2023/09/16 05:37:25;;;;;;;30.90;21.42;;;12.90;99.90;;;;;;5052393;28;20445;-76
2023/09/16 05:40:11;;;;;;;24.70;19.15;;;12.90;99.90;;;;;;5052630;28;20493;-76
2023/09/16 05:42:57;;;;;;;23.23;17.85;;;12.90;99.90;;;;;;5053349;28;20080;-76
2023/09/16 05:45:49;;;;;;;25.80;19.80;;;13.00;99.90;;;;;;5053204;28;20048;-77
2023/09/16 05:48:36;;;;;;;30.35;22.20;;;13.00;99.90;;;;;;5052514;28;20102;-76
2023/09/16 05:51:22;;;;;;;28.48;21.77;;;13.00;99.90;;;;;;5035882;28;20072;-82
2023/09/16 05:54:09;;;;;;;26.38;19.42;;;13.10;99.90;;;;;;5033977;28;20323;-80
2023/09/16 05:56:55;;;;;;;26.05;19.45;;;13.10;99.90;;;;;;5035570;28;20056;-75
2023/09/16 05:59:41;;;;;;;24.52;18.92;;;13.10;99.90;;;;;;5053092;28;20136;-79
2023/09/16 06:02:27;;;;;;;37.63;24.27;;;13.20;99.90;;;;;;5052631;28;20417;-76
2023/09/16 06:05:14;;;;;;;39.08;26.02;;;13.20;99.90;;;;;;5034605;28;20057;-77
2023/09/16 06:08:00;;;;;;;35.53;26.20;;;13.30;99.90;;;;;;5052843;28;20087;-75
2023/09/16 06:10:46;;;;;;;33.38;24.42;;;13.40;99.90;;;;;;5052462;28;20493;-76
2023/09/16 06:13:32;;;;;;;36.95;26.38;;;13.40;99.90;;;;;;5051483;28;20111;-76
2023/09/16 06:16:18;;;;;;;37.80;27.27;;;13.50;99.90;;;;;;5053043;28;20049;-78
2023/09/16 06:19:04;;;;;;;30.92;21.08;;;13.50;99.90;;;;;;5052905;28;20049;-81
2023/09/16 06:21:50;;;;;;;28.92;22.83;;;13.60;99.90;;;;;;5033379;28;20061;-74
2023/09/16 06:24:37;;;;;;;32.42;24.90;;;13.60;99.90;;;;;;5051935;28;20063;-79
2023/09/16 06:27:23;;;;;;;34.53;25.48;;;13.70;99.90;;;;;;5051333;28;20084;-78
2023/09/16 06:30:09;;;;;;;34.63;26.08;;;13.70;99.90;;;;;;5052241;28;20083;-85
2023/09/16 06:32:57;;;;;;;33.67;25.55;;;13.80;99.90;;;;;;5053197;28;20059;-77
2023/09/16 06:35:43;;;;;;;29.73;24.33;;;13.80;99.90;;;;;;5052506;28;20044;-76
2023/09/16 06:38:29;;;;;;;32.97;25.55;;;13.90;99.90;;;;;;5053414;28;20049;-79
2023/09/16 06:41:15;;;;;;;36.22;25.83;;;14.10;99.90;;;;;;5053441;28;20128;-79
2023/09/16 06:44:01;;;;;;;35.85;24.35;;;14.20;99.90;;;;;;5052372;28;20044;-78
2023/09/16 06:46:47;;;;;;;34.90;21.67;;;14.40;99.90;;;;;;5052101;28;20055;-78
2023/09/16 06:49:34;;;;;;;28.00;20.90;;;14.60;99.90;;;;;;5051950;28;20526;-77
2023/09/16 06:52:22;;;;;;;32.10;23.00;;;14.80;99.90;;;;;;5020770;28;20096;-81
2023/09/16 06:55:08;;;;;;;30.80;22.30;;;15.00;99.90;;;;;;5051841;28;20489;-76
2023/09/16 06:57:54;;;;;;;27.67;21.98;;;15.10;99.90;;;;;;5052477;28;20057;-76
2023/09/16 07:00:40;;;;;;;26.35;20.20;;;15.30;99.90;;;;;;5033904;28;20053;-76
2023/09/16 07:03:27;;;;;;;25.05;19.75;;;15.50;99.90;;;;;;5051887;28;20488;-76
2023/09/16 07:06:13;;;;;;;24.25;19.50;;;15.60;99.90;;;;;;5050718;28;20052;-78
2023/09/16 07:08:59;;;;;;;25.00;19.10;;;15.80;99.90;;;;;;5033567;28;20073;-86
2023/09/16 07:11:45;;;;;;;27.65;18.50;;;16.00;99.90;;;;;;5052279;28;20087;-77
2023/09/16 07:14:31;;;;;;;23.40;17.83;;;16.10;99.90;;;;;;5050836;28;20056;-84
2023/09/16 07:17:17;;;;;;;25.85;18.95;;;16.30;99.90;;;;;;5052404;28;20048;-82
2023/09/16 07:20:03;;;;;;;21.88;17.50;;;16.40;99.90;;;;;;5051657;28;20056;-80
2023/09/16 07:22:52;;;;;;;25.95;18.05;;;16.60;99.90;;;;;;5051098;28;20053;-75
2023/09/16 07:25:38;;;;;;;20.58;16.25;;;16.70;99.90;;;;;;5033243;28;20049;-84
2023/09/16 07:28:26;;;;;;;21.33;15.32;;;16.90;99.90;;;;;;5051176;28;20098;-78
2023/09/16 07:31:12;;;;;;;21.73;15.13;;;17.00;99.90;;;;;;5036549;28;20064;-79
2023/09/16 07:33:58;;;;;;;23.42;15.05;;;17.20;99.90;;;;;;5050194;28;20096;-79
2023/09/16 07:36:44;;;;;;;20.88;16.38;;;17.30;99.90;;;;;;5051430;28;20048;-76
2023/09/16 07:39:30;;;;;;;21.73;15.88;;;17.40;99.90;;;;;;5051290;28;20079;-78
2023/09/16 07:42:17;;;;;;;20.27;13.85;;;17.50;99.90;;;;;;5051784;28;20103;-78
2023/09/16 07:45:04;;;;;;;21.23;15.88;;;17.60;99.90;;;;;;5058483;28;20049;-79
2023/09/16 07:47:50;;;;;;;22.92;16.45;;;17.80;99.90;;;;;;5063948;28;20500;-82
2023/09/16 07:50:36;;;;;;;20.05;14.65;;;18.00;99.90;;;;;;5062721;28;20049;-79
2023/09/16 07:53:23;;;;;;;20.98;15.02;;;18.10;99.90;;;;;;5036135;28;20394;-83
2023/09/16 07:56:09;;;;;;;18.85;13.18;;;18.30;99.90;;;;;;5050641;28;20115;-77
2023/09/16 07:58:55;;;;;;;20.90;15.73;;;18.40;99.90;;;;;;5049843;28;20135;-79
2023/09/16 08:01:41;;;;;;;21.50;15.13;;;18.50;99.90;;;;;;5032925;28;20160;-81
2023/09/16 08:04:27;;;;;;;18.77;14.52;;;18.50;99.90;;;;;;5049722;28;20051;-81
2023/09/16 08:07:14;;;;;;;17.48;13.02;;;18.60;99.90;;;;;;5051985;28;20056;-85
2023/09/16 08:10:00;;;;;;;20.63;13.52;;;18.80;99.90;;;;;;5050590;28;20084;-81
2023/09/16 08:12:46;;;;;;;20.08;11.90;;;18.90;99.90;;;;;;5050728;28;20072;-82
2023/09/16 08:15:32;;;;;;;19.50;12.93;;;19.10;99.90;;;;;;5048991;28;20377;-77
2023/09/16 08:18:18;;;;;;;19.13;13.00;;;19.10;99.90;;;;;;5034343;28;20057;-75
2023/09/16 08:21:04;;;;;;;18.48;12.75;;;19.10;99.90;;;;;;5050724;28;20559;-79
2023/09/16 08:23:51;;;;;;;18.23;12.57;;;19.10;99.90;;;;;;5049650;28;20063;-77
2023/09/16 08:26:37;;;;;;;18.60;11.63;;;19.10;99.90;;;;;;5050249;28;20052;-76
2023/09/16 08:29:23;;;;;;;15.60;10.70;;;19.20;99.90;;;;;;5032036;28;20056;-80
2023/09/16 08:32:09;;;;;;;15.65;11.45;;;19.30;99.90;;;;;;5049966;28;20099;-83
2023/09/16 08:34:56;;;;;;;16.02;11.55;;;19.40;99.90;;;;;;5033063;28;20056;-79
2023/09/16 08:37:42;;;;;;;19.55;11.48;;;19.50;99.90;;;;;;5032198;28;20048;-77
2023/09/16 08:40:31;;;;;;;14.55;10.18;;;19.60;99.90;;;;;;5052863;28;20091;-78
2023/09/16 08:43:47;;;;;;;15.07;10.93;;;19.80;99.90;;;;;;5052048;28;20053;-81
2023/09/16 08:46:39;;;;;;;14.05;10.40;;;20.00;99.90;;;;;;5043808;28;20051;-78
2023/09/16 08:49:28;;;;;;;14.95;9.85;;;20.10;99.90;;;;;;5051629;28;20055;-78
2023/09/16 08:52:17;;;;;;;15.10;9.57;;;20.30;99.90;;;;;;5050947;28;20106;-79
2023/09/16 08:55:08;;;;;;;13.07;9.10;;;20.40;99.90;;;;;;5049956;28;20045;-79
2023/09/16 08:58:07;;;;;;;13.32;9.63;;;20.50;99.90;;;;;;5050261;28;20431;-76
2023/09/16 09:00:53;;;;;;;14.07;9.77;;;20.60;99.90;;;;;;5050127;28;20143;-75
2023/09/16 09:03:39;;;;;;;17.23;10.10;;;20.80;99.90;;;;;;5050724;28;20140;-76
2023/09/16 09:06:28;;;;;;;10.65;8.23;;;20.80;99.90;;;;;;5049784;28;20429;-78
2023/09/16 09:09:14;;;;;;;13.15;8.70;;;21.10;99.90;;;;;;5032055;28;20409;-80
2023/09/16 09:12:00;;;;;;;12.85;6.93;;;21.00;99.90;;;;;;5050593;28;20049;-77
2023/09/16 09:14:47;;;;;;;12.35;8.75;;;21.20;99.90;;;;;;5035702;28;20057;-76
2023/09/16 09:17:38;;;;;;;16.13;10.18;;;21.50;99.90;;;;;;5049596;28;20560;-77
2023/09/16 09:20:28;;;;;;;14.55;10.02;;;21.60;99.90;;;;;;5048982;28;20041;-76
2023/09/16 09:23:14;;;;;;;17.75;11.93;;;21.60;99.90;;;;;;5049625;28;20048;-76
2023/09/16 09:26:00;;;;;;;20.90;12.98;;;21.60;99.90;;;;;;5050644;28;20045;-80
2023/09/16 09:28:47;;;;;;;16.30;11.90;;;21.60;99.90;;;;;;5051887;28;20106;-80
2023/09/16 09:31:33;;;;;;;17.88;12.00;;;21.80;99.90;;;;;;5035694;28;20056;-79
2023/09/16 09:34:20;;;;;;;16.58;11.00;;;22.00;99.90;;;;;;5036028;28;20056;-77
2023/09/16 09:37:16;;;;;;;14.27;10.50;;;22.20;99.90;;;;;;5052313;28;20052;-78
2023/09/16 09:40:14;;;;;;;11.40;7.53;;;22.20;99.90;;;;;;5053491;28;20045;-76
2023/09/16 09:43:00;;;;;;;11.07;6.88;;;22.20;99.90;;;;;;5055342;28;20053;-77
2023/09/16 09:45:46;;;;;;;9.48;6.07;;;22.40;99.90;;;;;;5055104;28;20041;-79
2023/09/16 09:48:36;;;;;;;14.48;8.15;;;22.60;99.90;;;;;;5039416;28;20520;-82
2023/09/16 09:51:22;;;;;;;12.85;8.90;;;22.60;99.90;;;;;;5054127;28;20059;-79
2023/09/16 09:54:10;;;;;;;13.20;8.98;;;22.60;99.90;;;;;;5052957;28;20087;-83
2023/09/16 09:56:56;;;;;;;13.57;8.38;;;22.70;99.90;;;;;;5052552;28;20056;-79
2023/09/16 09:59:42;;;;;;;10.90;7.00;;;23.30;99.90;;;;;;5053132;28;20075;-79
2023/09/16 10:02:30;;;;;;;12.82;7.65;;;23.80;99.90;;;;;;5053607;28;20463;-78
2023/09/16 10:05:25;;;;;;;12.25;7.32;;;24.20;99.80;;;;;;5053656;28;20056;-82
2023/09/16 10:08:13;;;;;;;9.38;6.32;;;24.60;98.90;;;;;;5036384;28;20045;-84
2023/09/16 10:10:59;;;;;;;11.55;7.55;;;24.80;98.60;;;;;;5052616;28;20056;-83
2023/09/16 10:13:45;;;;;;;10.18;6.13;;;25.10;98.10;;;;;;5052650;28;20481;-83
2023/09/16 10:16:32;;;;;;;9.30;6.47;;;25.20;97.50;;;;;;5051670;28;20587;-83
2023/09/16 10:19:20;;;;;;;7.47;4.85;;;25.50;96.80;;;;;;5052540;28;20060;-83
2023/09/16 10:22:06;;;;;;;12.20;6.20;;;25.60;94.80;;;;;;5050958;28;20064;-79
2023/09/16 10:24:53;;;;;;;9.55;6.63;;;25.50;94.80;;;;;;5052459;28;20118;-77
2023/09/16 10:28:09;;;;;;;6.63;4.13;;;25.70;95.00;;;;;;5053087;28;20048;-81
2023/09/16 10:30:56;;;;;;;8.93;4.60;;;26.10;92.20;;;;;;5046506;28;20053;-80
2023/09/16 10:33:45;;;;;;;8.02;5.47;;;26.20;92.70;;;;;;5034086;28;20049;-84
2023/09/16 10:36:35;;;;;;;9.05;5.05;;;26.40;92.70;;;;;;5052322;28;20049;-82
2023/09/16 10:39:22;;;;;;;7.32;4.47;;;26.50;93.00;;;;;;5051653;28;20049;-82
2023/09/16 10:42:09;;;;;;;6.38;3.67;;;26.80;91.80;;;;;;5034861;28;20063;-82
2023/09/16 10:44:57;;;;;;;7.35;3.75;;;27.20;91.10;;;;;;5052060;28;20049;-81
2023/09/16 10:47:49;;;;;;;8.48;3.58;;;27.50;91.30;;;;;;5051524;28;20049;-77
2023/09/16 10:50:36;;;;;;;6.30;3.83;;;28.00;90.60;;;;;;5034425;28;20103;-79
2023/09/16 10:53:26;;;;;;;5.47;3.25;;;28.00;87.70;;;;;;5052374;28;20481;-78
2023/09/16 10:56:28;;;;;;;7.75;3.03;;;28.00;85.80;;;;;;5033767;28;20057;-78
2023/09/16 10:59:18;;;;;;;4.93;2.40;;;28.00;83.00;;;;;;5032685;28;20041;-84
2023/09/16 11:02:21;;;;;;;7.60;2.88;;;28.10;83.20;;;;;;5036124;28;20404;-81
2023/09/16 11:05:07;;;;;;;4.78;2.58;;;28.30;81.00;;;;;;5050080;28;20508;-79
2023/09/16 11:07:55;;;;;;;7.43;4.38;;;29.10;83.60;;;;;;5051612;28;20146;-80
2023/09/16 11:10:41;;;;;;;7.47;3.90;;;29.30;82.30;;;;;;5051039;28;20053;-80
2023/09/16 11:13:29;;;;;;;8.30;4.00;;;29.20;81.60;;;;;;5033610;28;20084;-79
2023/09/16 11:16:15;;;;;;;6.72;3.55;;;29.20;80.90;;;;;;5033558;28;20044;-82
2023/09/16 11:19:07;;;;;;;6.45;3.03;;;29.30;80.60;;;;;;5051439;28;20045;-79
2023/09/16 11:21:54;;;;;;;6.18;3.58;;;29.60;77.30;;;;;;5051335;28;20056;-78
2023/09/16 11:24:41;;;;;;;5.78;2.78;;;29.70;76.70;;;;;;5050591;28;20049;-78
2023/09/16 11:27:27;;;;;;;6.32;3.10;;;30.20;76.80;;;;;;5050470;28;20098;-80
2023/09/16 11:30:15;;;;;;;7.60;3.28;;;30.50;73.90;;;;;;5051663;28;20049;-77
2023/09/16 11:33:02;;;;;;;5.82;3.22;;;30.60;72.00;;;;;;5033484;28;20053;-77
2023/09/16 11:35:48;;;;;;;9.05;4.15;;;30.80;71.90;;;;;;5051853;28;20052;-79
2023/09/16 11:38:35;;;;;;;8.05;3.30;;;30.80;72.50;;;;;;5051073;28;20049;-81
2023/09/16 11:41:21;;;;;;;7.57;3.17;;;31.30;71.10;;;;;;5036907;28;20664;-79
2023/09/16 11:44:08;;;;;;;8.25;2.97;;;31.40;68.70;;;;;;5019354;28;20049;-80
2023/09/16 11:46:55;;;;;;;6.38;3.25;;;31.40;68.50;;;;;;5051188;28;20140;-78
2023/09/16 11:49:41;;;;;;;5.40;2.72;;;31.30;67.70;;;;;;5033812;28;20055;-80
2023/09/16 11:52:27;;;;;;;5.82;2.67;;;31.60;66.90;;;;;;5049939;28;20049;-78
2023/09/16 11:55:14;;;;;;;7.40;3.10;;;31.90;66.40;;;;;;5050392;28;20049;-79
2023/09/16 11:58:02;;;;;;;5.95;2.72;;;32.20;66.10;;;;;;5049868;28;20056;-82
2023/09/16 12:00:48;;;;;;;5.90;2.38;;;32.50;64.60;;;;;;5050876;28;20092;-80
2023/09/16 12:03:34;;;;;;;9.13;3.40;;;32.80;64.40;;;;;;5051209;28;20140;-82
2023/09/16 12:06:21;;;;;;;7.25;2.70;;;32.90;62.10;;;;;;5050808;28;20048;-78
2023/09/16 12:09:10;;;;;;;5.57;2.83;;;33.00;63.10;;;;;;5031840;28;20493;-78
2023/09/16 12:11:56;;;;;;;4.95;2.88;;;33.30;61.60;;;;;;5050615;28;20056;-81
2023/09/16 12:14:42;;;;;;;6.18;3.17;;;33.60;61.40;;;;;;5050727;28;20408;-77
2023/09/16 12:17:29;;;;;;;7.13;3.45;;;34.00;60.20;;;;;;5050865;28;20064;-79
2023/09/16 12:20:16;;;;;;;6.38;2.83;;;34.30;59.60;;;;;;5049851;28;20583;-78
2023/09/16 12:23:02;;;;;;;7.43;2.90;;;34.70;60.40;;;;;;5050466;28;20140;-78
2023/09/16 12:25:48;;;;;;;7.30;3.28;;;35.00;59.00;;;;;;5050116;28;20787;-79
2023/09/16 12:28:34;;;;;;;6.53;2.70;;;35.00;58.80;;;;;;5050409;28;20134;-79
2023/09/16 12:31:24;;;;;;;6.82;3.65;;;34.00;58.20;;;;;;5049753;28;20049;-78
2023/09/16 12:34:19;;;;;;;12.07;6.75;;;33.60;58.00;;;;;;5036068;28;20084;-81
2023/09/16 12:37:05;;;;;;;8.73;6.30;;;33.90;59.50;;;;;;5049804;28;20145;-79
2023/09/16 12:39:51;;;;;;;8.88;3.95;;;33.90;59.40;;;;;;5050499;28;20044;-78
2023/09/16 12:42:38;;;;;;;10.18;3.75;;;33.90;59.30;;;;;;5050911;28;20132;-81
2023/09/16 12:45:25;;;;;;;8.18;3.75;;;33.40;59.50;;;;;;5049463;28;20083;-80
2023/09/16 12:48:11;;;;;;;6.63;3.00;;;33.40;60.00;;;;;;5050373;28;20168;-79
2023/09/16 12:50:59;;;;;;;6.93;2.95;;;33.30;59.80;;;;;;5050574;28;20045;-79
2023/09/16 12:53:45;;;;;;;10.07;4.68;;;34.00;60.00;;;;;;5050353;28;20126;-80
2023/09/16 12:56:34;;;;;;;6.70;2.95;;;34.20;58.80;;;;;;5049929;28;20497;-82
2023/09/16 12:59:20;;;;;;;7.15;2.97;;;34.00;58.70;;;;;;5049362;28;20123;-81
2023/09/16 13:02:06;;;;;;;7.07;3.03;;;33.80;58.70;;;;;;5033376;28;20057;-79
2023/09/16 13:05:14;;;;;;;5.85;3.20;;;33.80;58.40;;;;;;5054367;28;20069;-86
2023/09/16 13:08:01;;;;;;;9.23;2.85;;;33.70;57.60;;;;;;5053655;28;20127;-81
2023/09/16 13:10:49;;;;;;;7.75;3.50;;;33.30;58.70;;;;;;5036308;28;20493;-77
2023/09/16 13:13:35;;;;;;;6.10;3.47;;;32.70;58.30;;;;;;5054293;28;20045;-78
2023/09/16 13:16:35;;;;;;;6.90;3.53;;;32.00;59.40;;;;;;5035434;28;20056;-78
2023/09/16 13:19:21;;;;;;;5.32;2.78;;;31.70;63.00;;;;;;5053264;28;20045;-78
2023/09/16 13:22:11;;;;;;;6.68;3.85;;;31.50;64.20;;;;;;5058325;28;20412;-81
2023/09/16 13:24:58;;;;;;;8.00;4.28;;;31.80;64.10;;;;;;5047423;28;20045;-80
2023/09/16 13:27:44;;;;;;;7.80;3.70;;;31.60;64.00;;;;;;5044529;28;20063;-81
2023/09/16 13:30:32;;;;;;;8.35;4.32;;;31.60;64.50;;;;;;5063027;28;20056;-85
2023/09/16 13:33:20;;;;;;;7.18;4.43;;;31.90;65.10;;;;;;5055137;28;20049;-85
2023/09/16 13:36:07;;;;;;;7.60;4.93;;;33.30;66.00;;;;;;5053566;28;20045;-81
2023/09/16 13:38:54;;;;;;;10.82;5.25;;;34.30;62.40;;;;;;5053584;28;20056;-81
2023/09/16 13:41:40;;;;;;;8.77;4.50;;;35.60;61.00;;;;;;5052518;28;20049;-81
2023/09/16 13:44:26;;;;;;;7.03;4.15;;;36.40;60.20;;;;;;5054031;28;20056;-85
2023/09/16 13:47:12;;;;;;;7.40;4.30;;;37.20;59.00;;;;;;5053512;28;20056;-80
2023/09/16 13:49:58;;;;;;;11.65;7.90;;;37.90;57.30;;;;;;5039515;28;20049;-84
2023/09/16 13:52:44;;;;;;;6.85;4.43;;;38.20;55.80;;;;;;5053840;28;20049;-80
2023/09/16 13:55:30;;;;;;;8.50;5.30;;;38.20;54.70;;;;;;5053983;28;20500;-83
2023/09/16 13:58:17;;;;;;;6.50;3.45;;;38.20;54.40;;;;;;5035681;28;20056;-81
2023/09/16 14:01:04;;;;;;;6.10;3.80;;;38.40;53.00;;;;;;5035111;28;20045;-80
2023/09/16 14:03:50;;;;;;;6.35;3.80;;;38.60;52.90;;;;;;5052418;28;20052;-80
2023/09/16 14:06:36;;;;;;;7.10;3.30;;;39.00;52.00;;;;;;5039426;28;20041;-80
2023/09/16 14:09:22;;;;;;;5.47;3.15;;;39.20;50.80;;;;;;5052450;28;20055;-78
2023/09/16 14:12:08;;;;;;;6.57;3.05;;;39.30;50.30;;;;;;5053904;28;20041;-79
2023/09/16 14:14:54;;;;;;;5.45;3.10;;;39.20;50.20;;;;;;5034478;28;20045;-82